sensor_id;sensor_type;location;lat;lon;timestamp;P1;durP1;ratioP1;P2;durP2;ratioP2
40150;SDS011;25866;52.420;10.640;2023-03-22T00:00:47;16.38;;;7.10;;
40150;SDS011;25866;52.420;10.640;2023-03-22T00:03:14;11.93;;;7.80;;
40150;SDS011;25866;52.420;10.640;2023-03-22T00:05:40;12.97;;;7.87;;
40150;SDS011;25866;52.420;10.640;2023-03-22T00:08:06;15.00;;;8.23;;
40150;SDS011;25866;52.420;10.640;2023-03-22T00:10:33;16.07;;;8.37;;
40150;SDS011;25866;52.420;10.640;2023-03-22T00:13:00;15.13;;;8.93;;
40150;SDS011;25866;52.420;10.640;2023-03-22T00:15:26;12.87;;;8.90;;
40150;SDS011;25866;52.420;10.640;2023-03-22T00:17:56;13.80;;;9.10;;
40150;SDS011;25866;52.420;10.640;2023-03-22T00:20:23;14.03;;;8.83;;
40150;SDS011;25866;52.420;10.640;2023-03-22T00:22:49;16.30;;;9.17;;
40150;SDS011;25866;52.420;10.640;2023-03-22T00:25:16;13.17;;;9.73;;
40150;SDS011;25866;52.420;10.640;2023-03-22T00:27:42;13.10;;;9.63;;
40150;SDS011;25866;52.420;10.640;2023-03-22T00:30:09;15.37;;;9.30;;
40150;SDS011;25866;52.420;10.640;2023-03-22T00:32:35;14.40;;;9.83;;
40150;SDS011;25866;52.420;10.640;2023-03-22T00:35:03;12.60;;;9.10;;
40150;SDS011;25866;52.420;10.640;2023-03-22T00:37:30;16.27;;;9.32;;
40150;SDS011;25866;52.420;10.640;2023-03-22T00:40:01;13.40;;;9.27;;
40150;SDS011;25866;52.420;10.640;2023-03-22T00:42:28;19.40;;;9.77;;
40150;SDS011;25866;52.420;10.640;2023-03-22T00:44:54;14.37;;;10.10;;
40150;SDS011;25866;52.420;10.640;2023-03-22T00:47:20;14.97;;;9.97;;
40150;SDS011;25866;52.420;10.640;2023-03-22T00:49:47;13.90;;;9.57;;
40150;SDS011;25866;52.420;10.640;2023-03-22T00:52:12;17.70;;;10.90;;
40150;SDS011;25866;52.420;10.640;2023-03-22T00:54:38;14.60;;;10.07;;
40150;SDS011;25866;52.420;10.640;2023-03-22T00:57:04;14.90;;;9.90;;
40150;SDS011;25866;52.420;10.640;2023-03-22T00:59:29;15.13;;;9.83;;
40150;SDS011;25866;52.420;10.640;2023-03-22T01:01:55;18.13;;;11.00;;
40150;SDS011;25866;52.420;10.640;2023-03-22T01:04:22;16.53;;;11.03;;
40150;SDS011;25866;52.420;10.640;2023-03-22T01:06:50;19.63;;;10.67;;
40150;SDS011;25866;52.420;10.640;2023-03-22T01:09:23;19.10;;;10.97;;
40150;SDS011;25866;52.420;10.640;2023-03-22T01:11:53;15.07;;;11.07;;
40150;SDS011;25866;52.420;10.640;2023-03-22T01:14:23;18.43;;;11.97;;
40150;SDS011;25866;52.420;10.640;2023-03-22T01:16:50;15.50;;;10.93;;
40150;SDS011;25866;52.420;10.640;2023-03-22T01:19:19;15.23;;;11.07;;
40150;SDS011;25866;52.420;10.640;2023-03-22T01:21:45;16.87;;;11.37;;
40150;SDS011;25866;52.420;10.640;2023-03-22T01:24:10;16.70;;;10.60;;
40150;SDS011;25866;52.420;10.640;2023-03-22T01:26:36;15.43;;;11.47;;
40150;SDS011;25866;52.420;10.640;2023-03-22T01:29:03;15.30;;;10.97;;
40150;SDS011;25866;52.420;10.640;2023-03-22T01:31:29;20.67;;;11.60;;
40150;SDS011;25866;52.420;10.640;2023-03-22T01:33:55;17.57;;;11.40;;
40150;SDS011;25866;52.420;10.640;2023-03-22T01:36:20;18.60;;;11.67;;
40150;SDS011;25866;52.420;10.640;2023-03-22T01:38:46;15.03;;;11.43;;
40150;SDS011;25866;52.420;10.640;2023-03-22T01:41:12;20.33;;;11.63;;
40150;SDS011;25866;52.420;10.640;2023-03-22T01:43:37;20.43;;;12.50;;
40150;SDS011;25866;52.420;10.640;2023-03-22T01:46:03;18.87;;;12.13;;
40150;SDS011;25866;52.420;10.640;2023-03-22T01:48:36;20.70;;;13.13;;
40150;SDS011;25866;52.420;10.640;2023-03-22T01:51:14;18.57;;;12.27;;
40150;SDS011;25866;52.420;10.640;2023-03-22T01:53:44;19.07;;;12.60;;
40150;SDS011;25866;52.420;10.640;2023-03-22T01:56:14;19.43;;;12.53;;
40150;SDS011;25866;52.420;10.640;2023-03-22T01:58:43;18.60;;;12.23;;
40150;SDS011;25866;52.420;10.640;2023-03-22T02:01:10;18.30;;;11.90;;
40150;SDS011;25866;52.420;10.640;2023-03-22T02:06:14;22.20;;;11.80;;
40150;SDS011;25866;52.420;10.640;2023-03-22T02:08:40;19.13;;;12.20;;
40150;SDS011;25866;52.420;10.640;2023-03-22T02:11:06;15.67;;;11.60;;
40150;SDS011;25866;52.420;10.640;2023-03-22T02:17:16;21.27;;;11.77;;
40150;SDS011;25866;52.420;10.640;2023-03-22T02:19:31;17.42;;;11.48;;
40150;SDS011;25866;52.420;10.640;2023-03-22T02:36:08;19.70;;;11.57;;
40150;SDS011;25866;52.420;10.640;2023-03-22T02:44:22;18.10;;;12.50;;
40150;SDS011;25866;52.420;10.640;2023-03-22T02:49:53;17.50;;;12.00;;
40150;SDS011;25866;52.420;10.640;2023-03-22T02:52:45;19.17;;;12.80;;
40150;SDS011;25866;52.420;10.640;2023-03-22T02:55:26;18.10;;;11.90;;
40150;SDS011;25866;52.420;10.640;2023-03-22T02:58:14;19.37;;;12.30;;
40150;SDS011;25866;52.420;10.640;2023-03-22T03:00:48;16.87;;;11.73;;
40150;SDS011;25866;52.420;10.640;2023-03-22T03:03:17;19.03;;;12.13;;
40150;SDS011;25866;52.420;10.640;2023-03-22T03:05:45;17.67;;;12.07;;
40150;SDS011;25866;52.420;10.640;2023-03-22T03:08:15;18.67;;;11.80;;
40150;SDS011;25866;52.420;10.640;2023-03-22T03:10:43;21.27;;;13.50;;
40150;SDS011;25866;52.420;10.640;2023-03-22T03:13:13;20.95;;;12.18;;
40150;SDS011;25866;52.420;10.640;2023-03-22T03:15:41;17.03;;;11.63;;
40150;SDS011;25866;52.420;10.640;2023-03-22T03:18:19;17.92;;;12.00;;
40150;SDS011;25866;52.420;10.640;2023-03-22T03:24:19;16.40;;;11.88;;
40150;SDS011;25866;52.420;10.640;2023-03-22T03:26:34;22.23;;;11.83;;
40150;SDS011;25866;52.420;10.640;2023-03-22T03:29:17;19.63;;;12.30;;
40150;SDS011;25866;52.420;10.640;2023-03-22T03:32:03;19.35;;;12.88;;
40150;SDS011;25866;52.420;10.640;2023-03-22T03:34:49;21.25;;;11.98;;
40150;SDS011;25866;52.420;10.640;2023-03-22T03:37:30;20.67;;;11.85;;
40150;SDS011;25866;52.420;10.640;2023-03-22T03:40:08;18.90;;;12.95;;
40150;SDS011;25866;52.420;10.640;2023-03-22T03:42:37;22.90;;;12.83;;
40150;SDS011;25866;52.420;10.640;2023-03-22T03:45:10;19.73;;;12.65;;
40150;SDS011;25866;52.420;10.640;2023-03-22T03:47:38;23.13;;;13.23;;
40150;SDS011;25866;52.420;10.640;2023-03-22T03:50:04;21.85;;;13.27;;
40150;SDS011;25866;52.420;10.640;2023-03-22T03:52:31;19.88;;;12.82;;
40150;SDS011;25866;52.420;10.640;2023-03-22T03:54:57;19.45;;;12.73;;
40150;SDS011;25866;52.420;10.640;2023-03-22T03:57:22;19.40;;;12.73;;
40150;SDS011;25866;52.420;10.640;2023-03-22T03:59:48;20.63;;;13.17;;
40150;SDS011;25866;52.420;10.640;2023-03-22T04:02:14;21.45;;;12.90;;
40150;SDS011;25866;52.420;10.640;2023-03-22T04:04:40;19.90;;;12.90;;
40150;SDS011;25866;52.420;10.640;2023-03-22T04:07:06;22.50;;;13.32;;
40150;SDS011;25866;52.420;10.640;2023-03-22T04:09:33;23.33;;;13.27;;
40150;SDS011;25866;52.420;10.640;2023-03-22T04:12:00;20.60;;;12.90;;
40150;SDS011;25866;52.420;10.640;2023-03-22T04:14:26;20.00;;;12.80;;
40150;SDS011;25866;52.420;10.640;2023-03-22T04:16:52;18.67;;;12.63;;
40150;SDS011;25866;52.420;10.640;2023-03-22T04:19:19;19.83;;;12.40;;
40150;SDS011;25866;52.420;10.640;2023-03-22T04:21:45;21.90;;;12.57;;
40150;SDS011;25866;52.420;10.640;2023-03-22T04:24:11;19.13;;;12.27;;
40150;SDS011;25866;52.420;10.640;2023-03-22T04:26:38;20.00;;;12.80;;
40150;SDS011;25866;52.420;10.640;2023-03-22T04:29:04;21.27;;;12.87;;
40150;SDS011;25866;52.420;10.640;2023-03-22T04:31:30;17.40;;;12.53;;
40150;SDS011;25866;52.420;10.640;2023-03-22T04:33:57;21.13;;;12.07;;
40150;SDS011;25866;52.420;10.640;2023-03-22T04:36:24;16.58;;;11.38;;
40150;SDS011;25866;52.420;10.640;2023-03-22T04:38:55;22.13;;;12.60;;
40150;SDS011;25866;52.420;10.640;2023-03-22T04:41:21;18.17;;;11.80;;
40150;SDS011;25866;52.420;10.640;2023-03-22T04:43:47;20.00;;;12.27;;
40150;SDS011;25866;52.420;10.640;2023-03-22T04:46:15;18.08;;;12.15;;
40150;SDS011;25866;52.420;10.640;2023-03-22T04:48:42;19.40;;;11.43;;
40150;SDS011;25866;52.420;10.640;2023-03-22T04:51:08;21.00;;;12.17;;
40150;SDS011;25866;52.420;10.640;2023-03-22T04:53:35;19.00;;;11.90;;
40150;SDS011;25866;52.420;10.640;2023-03-22T04:56:06;19.10;;;12.73;;
40150;SDS011;25866;52.420;10.640;2023-03-22T04:58:34;18.95;;;12.07;;
40150;SDS011;25866;52.420;10.640;2023-03-22T05:01:02;20.05;;;12.27;;
40150;SDS011;25866;52.420;10.640;2023-03-22T05:03:28;18.77;;;12.15;;
40150;SDS011;25866;52.420;10.640;2023-03-22T05:05:55;22.85;;;12.05;;
40150;SDS011;25866;52.420;10.640;2023-03-22T05:08:22;17.67;;;11.52;;
40150;SDS011;25866;52.420;10.640;2023-03-22T05:10:49;18.27;;;11.53;;
40150;SDS011;25866;52.420;10.640;2023-03-22T05:13:16;22.35;;;11.55;;
40150;SDS011;25866;52.420;10.640;2023-03-22T05:15:46;21.52;;;12.00;;
40150;SDS011;25866;52.420;10.640;2023-03-22T05:18:13;17.23;;;12.43;;
40150;SDS011;25866;52.420;10.640;2023-03-22T05:20:40;21.63;;;12.18;;
40150;SDS011;25866;52.420;10.640;2023-03-22T05:23:06;18.27;;;11.73;;
40150;SDS011;25866;52.420;10.640;2023-03-22T05:25:34;18.90;;;12.00;;
40150;SDS011;25866;52.420;10.640;2023-03-22T05:28:00;19.20;;;12.25;;
40150;SDS011;25866;52.420;10.640;2023-03-22T05:30:28;23.40;;;12.57;;
40150;SDS011;25866;52.420;10.640;2023-03-22T05:33:01;16.87;;;11.83;;
40150;SDS011;25866;52.420;10.640;2023-03-22T05:35:34;17.15;;;12.48;;
40150;SDS011;25866;52.420;10.640;2023-03-22T05:38:01;18.50;;;12.03;;
40150;SDS011;25866;52.420;10.640;2023-03-22T05:40:27;17.20;;;11.77;;
40150;SDS011;25866;52.420;10.640;2023-03-22T05:42:53;18.05;;;12.57;;
40150;SDS011;25866;52.420;10.640;2023-03-22T05:45:20;19.42;;;12.55;;
40150;SDS011;25866;52.420;10.640;2023-03-22T05:47:46;18.13;;;12.20;;
40150;SDS011;25866;52.420;10.640;2023-03-22T05:50:14;23.63;;;12.93;;
40150;SDS011;25866;52.420;10.640;2023-03-22T05:52:42;21.98;;;13.43;;
40150;SDS011;25866;52.420;10.640;2023-03-22T05:55:09;18.63;;;13.00;;
40150;SDS011;25866;52.420;10.640;2023-03-22T05:57:36;17.33;;;12.35;;
40150;SDS011;25866;52.420;10.640;2023-03-22T06:00:06;24.40;;;13.35;;
40150;SDS011;25866;52.420;10.640;2023-03-22T06:02:42;19.50;;;12.48;;
40150;SDS011;25866;52.420;10.640;2023-03-22T06:05:09;21.08;;;13.35;;
40150;SDS011;25866;52.420;10.640;2023-03-22T06:07:35;18.70;;;13.00;;
40150;SDS011;25866;52.420;10.640;2023-03-22T06:10:02;20.30;;;12.80;;
40150;SDS011;25866;52.420;10.640;2023-03-22T06:12:28;20.25;;;12.57;;
40150;SDS011;25866;52.420;10.640;2023-03-22T06:14:54;20.98;;;12.90;;
40150;SDS011;25866;52.420;10.640;2023-03-22T06:17:20;22.13;;;13.32;;
40150;SDS011;25866;52.420;10.640;2023-03-22T06:19:46;17.92;;;11.70;;
40150;SDS011;25866;52.420;10.640;2023-03-22T06:22:12;16.23;;;12.00;;
40150;SDS011;25866;52.420;10.640;2023-03-22T06:24:37;17.85;;;12.48;;
40150;SDS011;25866;52.420;10.640;2023-03-22T06:27:05;18.38;;;12.07;;
40150;SDS011;25866;52.420;10.640;2023-03-22T06:29:31;23.13;;;12.18;;
40150;SDS011;25866;52.420;10.640;2023-03-22T06:31:57;20.35;;;12.48;;
40150;SDS011;25866;52.420;10.640;2023-03-22T06:34:23;18.83;;;12.07;;
40150;SDS011;25866;52.420;10.640;2023-03-22T06:36:50;19.13;;;11.68;;
40150;SDS011;25866;52.420;10.640;2023-03-22T06:39:17;16.10;;;11.18;;
40150;SDS011;25866;52.420;10.640;2023-03-22T06:41:43;15.98;;;11.45;;
40150;SDS011;25866;52.420;10.640;2023-03-22T06:44:08;17.88;;;12.65;;
40150;SDS011;25866;52.420;10.640;2023-03-22T06:46:34;16.13;;;11.18;;
40150;SDS011;25866;52.420;10.640;2023-03-22T06:49:00;18.92;;;11.45;;
40150;SDS011;25866;52.420;10.640;2023-03-22T06:51:26;21.15;;;12.35;;
40150;SDS011;25866;52.420;10.640;2023-03-22T06:53:51;18.13;;;11.65;;
40150;SDS011;25866;52.420;10.640;2023-03-22T06:56:17;18.40;;;11.70;;
40150;SDS011;25866;52.420;10.640;2023-03-22T06:58:42;19.67;;;11.48;;
40150;SDS011;25866;52.420;10.640;2023-03-22T07:01:08;18.15;;;11.43;;
40150;SDS011;25866;52.420;10.640;2023-03-22T07:03:34;16.17;;;11.40;;
40150;SDS011;25866;52.420;10.640;2023-03-22T07:06:03;15.30;;;11.45;;
40150;SDS011;25866;52.420;10.640;2023-03-22T07:08:30;18.02;;;11.65;;
40150;SDS011;25866;52.420;10.640;2023-03-22T07:10:56;16.88;;;11.27;;
40150;SDS011;25866;52.420;10.640;2023-03-22T07:13:21;17.67;;;11.40;;
40150;SDS011;25866;52.420;10.640;2023-03-22T07:15:47;19.13;;;12.07;;
40150;SDS011;25866;52.420;10.640;2023-03-22T07:18:13;16.10;;;12.45;;
40150;SDS011;25866;52.420;10.640;2023-03-22T07:20:38;19.52;;;11.57;;
40150;SDS011;25866;52.420;10.640;2023-03-22T07:23:06;19.23;;;11.50;;
40150;SDS011;25866;52.420;10.640;2023-03-22T07:25:32;17.63;;;11.30;;
40150;SDS011;25866;52.420;10.640;2023-03-22T07:27:59;18.20;;;11.68;;
40150;SDS011;25866;52.420;10.640;2023-03-22T07:30:25;17.25;;;11.43;;
40150;SDS011;25866;52.420;10.640;2023-03-22T07:32:50;16.20;;;10.65;;
40150;SDS011;25866;52.420;10.640;2023-03-22T07:35:16;17.77;;;11.85;;
40150;SDS011;25866;52.420;10.640;2023-03-22T07:37:43;18.17;;;11.57;;
40150;SDS011;25866;52.420;10.640;2023-03-22T07:40:09;17.85;;;11.57;;
40150;SDS011;25866;52.420;10.640;2023-03-22T07:42:36;19.65;;;12.15;;
40150;SDS011;25866;52.420;10.640;2023-03-22T07:45:02;18.77;;;12.57;;
40150;SDS011;25866;52.420;10.640;2023-03-22T07:47:28;19.35;;;11.52;;
40150;SDS011;25866;52.420;10.640;2023-03-22T07:49:54;17.63;;;11.43;;
40150;SDS011;25866;52.420;10.640;2023-03-22T07:52:19;21.00;;;12.38;;
40150;SDS011;25866;52.420;10.640;2023-03-22T07:54:45;16.08;;;11.75;;
40150;SDS011;25866;52.420;10.640;2023-03-22T07:57:11;18.88;;;11.07;;
40150;SDS011;25866;52.420;10.640;2023-03-22T07:59:36;15.10;;;11.30;;
40150;SDS011;25866;52.420;10.640;2023-03-22T08:02:02;18.65;;;11.50;;
40150;SDS011;25866;52.420;10.640;2023-03-22T08:04:28;19.80;;;11.60;;
40150;SDS011;25866;52.420;10.640;2023-03-22T08:06:54;17.00;;;11.25;;
40150;SDS011;25866;52.420;10.640;2023-03-22T08:09:23;15.35;;;10.45;;
40150;SDS011;25866;52.420;10.640;2023-03-22T08:11:49;17.80;;;11.25;;
40150;SDS011;25866;52.420;10.640;2023-03-22T08:14:15;16.70;;;11.40;;
40150;SDS011;25866;52.420;10.640;2023-03-22T08:16:41;16.48;;;11.43;;
40150;SDS011;25866;52.420;10.640;2023-03-22T08:19:08;17.55;;;10.40;;
40150;SDS011;25866;52.420;10.640;2023-03-22T08:21:34;16.27;;;10.13;;
40150;SDS011;25866;52.420;10.640;2023-03-22T08:24:01;14.63;;;10.10;;
40150;SDS011;25866;52.420;10.640;2023-03-22T08:26:27;17.52;;;9.95;;
40150;SDS011;25866;52.420;10.640;2023-03-22T08:28:53;12.57;;;9.50;;
40150;SDS011;25866;52.420;10.640;2023-03-22T08:31:21;17.08;;;10.60;;
40150;SDS011;25866;52.420;10.640;2023-03-22T08:33:46;16.55;;;9.68;;
40150;SDS011;25866;52.420;10.640;2023-03-22T08:36:17;13.80;;;9.82;;
40150;SDS011;25866;52.420;10.640;2023-03-22T08:38:44;13.77;;;9.60;;
40150;SDS011;25866;52.420;10.640;2023-03-22T08:41:11;13.52;;;9.80;;
40150;SDS011;25866;52.420;10.640;2023-03-22T08:43:37;17.10;;;9.27;;
40150;SDS011;25866;52.420;10.640;2023-03-22T08:46:02;16.77;;;9.00;;
40150;SDS011;25866;52.420;10.640;2023-03-22T08:48:28;13.80;;;8.90;;
40150;SDS011;25866;52.420;10.640;2023-03-22T08:51:04;11.65;;;8.90;;
40150;SDS011;25866;52.420;10.640;2023-03-22T08:53:30;15.80;;;8.90;;
40150;SDS011;25866;52.420;10.640;2023-03-22T08:55:56;13.82;;;9.07;;
40150;SDS011;25866;52.420;10.640;2023-03-22T08:58:26;12.25;;;8.52;;
40150;SDS011;25866;52.420;10.640;2023-03-22T09:00:52;12.50;;;8.70;;
40150;SDS011;25866;52.420;10.640;2023-03-22T09:03:18;13.77;;;8.55;;
40150;SDS011;25866;52.420;10.640;2023-03-22T09:05:44;13.95;;;8.48;;
40150;SDS011;25866;52.420;10.640;2023-03-22T09:08:09;15.73;;;8.85;;
40150;SDS011;25866;52.420;10.640;2023-03-22T09:10:36;15.57;;;8.23;;
40150;SDS011;25866;52.420;10.640;2023-03-22T09:13:03;12.27;;;8.48;;
40150;SDS011;25866;52.420;10.640;2023-03-22T09:15:29;14.10;;;7.53;;
40150;SDS011;25866;52.420;10.640;2023-03-22T09:17:55;11.00;;;7.47;;
40150;SDS011;25866;52.420;10.640;2023-03-22T09:20:21;8.93;;;6.60;;
40150;SDS011;25866;52.420;10.640;2023-03-22T09:22:52;13.43;;;7.50;;
40150;SDS011;25866;52.420;10.640;2023-03-22T09:25:18;14.23;;;7.30;;
40150;SDS011;25866;52.420;10.640;2023-03-22T09:27:45;12.95;;;6.85;;
40150;SDS011;25866;52.420;10.640;2023-03-22T09:30:10;10.43;;;7.03;;
40150;SDS011;25866;52.420;10.640;2023-03-22T09:32:36;11.27;;;6.57;;
40150;SDS011;25866;52.420;10.640;2023-03-22T09:35:02;12.13;;;6.43;;
40150;SDS011;25866;52.420;10.640;2023-03-22T09:37:28;9.43;;;6.10;;
40150;SDS011;25866;52.420;10.640;2023-03-22T09:39:55;10.25;;;5.68;;
40150;SDS011;25866;52.420;10.640;2023-03-22T09:42:35;8.18;;;5.95;;
40150;SDS011;25866;52.420;10.640;2023-03-22T09:45:07;10.95;;;6.38;;
40150;SDS011;25866;52.420;10.640;2023-03-22T09:47:41;12.50;;;6.63;;
40150;SDS011;25866;52.420;10.640;2023-03-22T09:50:21;10.48;;;5.50;;
40150;SDS011;25866;52.420;10.640;2023-03-22T09:52:48;10.40;;;5.82;;
40150;SDS011;25866;52.420;10.640;2023-03-22T09:57:45;12.57;;;6.80;;
40150;SDS011;25866;52.420;10.640;2023-03-22T10:03:08;9.27;;;6.22;;
40150;SDS011;25866;52.420;10.640;2023-03-22T10:11:41;11.68;;;6.43;;
40150;SDS011;25866;52.420;10.640;2023-03-22T10:14:23;14.70;;;6.38;;
40150;SDS011;25866;52.420;10.640;2023-03-22T10:16:59;15.40;;;6.90;;
40150;SDS011;25866;52.420;10.640;2023-03-22T10:19:40;9.73;;;6.32;;
40150;SDS011;25866;52.420;10.640;2023-03-22T10:22:30;9.80;;;6.25;;
40150;SDS011;25866;52.420;10.640;2023-03-22T10:24:59;10.48;;;6.68;;
40150;SDS011;25866;52.420;10.640;2023-03-22T10:27:27;10.00;;;6.28;;
40150;SDS011;25866;52.420;10.640;2023-03-22T10:29:56;9.45;;;6.10;;
40150;SDS011;25866;52.420;10.640;2023-03-22T10:32:41;10.10;;;6.03;;
40150;SDS011;25866;52.420;10.640;2023-03-22T10:35:13;8.45;;;5.80;;
40150;SDS011;25866;52.420;10.640;2023-03-22T10:37:39;14.02;;;5.57;;
40150;SDS011;25866;52.420;10.640;2023-03-22T10:40:09;10.05;;;5.80;;
40150;SDS011;25866;52.420;10.640;2023-03-22T10:42:44;10.88;;;5.25;;
40150;SDS011;25866;52.420;10.640;2023-03-22T10:45:18;9.90;;;5.82;;
40150;SDS011;25866;52.420;10.640;2023-03-22T10:48:04;6.95;;;5.28;;
40150;SDS011;25866;52.420;10.640;2023-03-22T10:50:35;8.10;;;5.35;;
40150;SDS011;25866;52.420;10.640;2023-03-22T10:53:10;7.40;;;4.50;;
40150;SDS011;25866;52.420;10.640;2023-03-22T10:55:47;11.30;;;5.05;;
40150;SDS011;25866;52.420;10.640;2023-03-22T10:58:17;6.78;;;4.32;;
40150;SDS011;25866;52.420;10.640;2023-03-22T11:03:32;8.35;;;3.90;;
40150;SDS011;25866;52.420;10.640;2023-03-22T11:06:07;8.32;;;4.45;;
40150;SDS011;25866;52.420;10.640;2023-03-22T11:11:22;10.82;;;4.28;;
40150;SDS011;25866;52.420;10.640;2023-03-22T11:16:46;6.68;;;3.83;;
40150;SDS011;25866;52.420;10.640;2023-03-22T11:20:13;6.38;;;3.58;;
40150;SDS011;25866;52.420;10.640;2023-03-22T11:27:53;5.85;;;3.60;;
40150;SDS011;25866;52.420;10.640;2023-03-22T11:30:29;5.60;;;3.42;;
40150;SDS011;25866;52.420;10.640;2023-03-22T11:35:46;7.03;;;3.67;;
40150;SDS011;25866;52.420;10.640;2023-03-22T11:38:39;7.22;;;4.38;;
40150;SDS011;25866;52.420;10.640;2023-03-22T11:41:08;7.40;;;3.90;;
40150;SDS011;25866;52.420;10.640;2023-03-22T11:43:47;6.15;;;3.67;;
40150;SDS011;25866;52.420;10.640;2023-03-22T11:46:18;5.43;;;3.60;;
40150;SDS011;25866;52.420;10.640;2023-03-22T11:48:45;6.32;;;3.40;;
40150;SDS011;25866;52.420;10.640;2023-03-22T11:51:16;6.88;;;3.90;;
40150;SDS011;25866;52.420;10.640;2023-03-22T11:53:53;4.78;;;3.63;;
40150;SDS011;25866;52.420;10.640;2023-03-22T11:56:25;6.38;;;3.63;;
40150;SDS011;25866;52.420;10.640;2023-03-22T11:59:07;7.35;;;3.80;;
40150;SDS011;25866;52.420;10.640;2023-03-22T12:04:43;8.32;;;3.50;;
40150;SDS011;25866;52.420;10.640;2023-03-22T12:07:17;5.25;;;3.25;;
40150;SDS011;25866;52.420;10.640;2023-03-22T12:09:50;4.78;;;3.45;;
40150;SDS011;25866;52.420;10.640;2023-03-22T12:12:24;6.03;;;3.22;;
40150;SDS011;25866;52.420;10.640;2023-03-22T12:14:56;6.97;;;3.25;;
40150;SDS011;25866;52.420;10.640;2023-03-22T12:17:36;10.80;;;3.28;;
40150;SDS011;25866;52.420;10.640;2023-03-22T12:20:40;7.70;;;2.92;;
40150;SDS011;25866;52.420;10.640;2023-03-22T12:23:00;3.85;;;2.60;;
40150;SDS011;25866;52.420;10.640;2023-03-22T12:25:30;5.15;;;2.67;;
40150;SDS011;25866;52.420;10.640;2023-03-22T12:28:06;6.53;;;2.80;;
40150;SDS011;25866;52.420;10.640;2023-03-22T12:30:42;7.53;;;3.08;;
40150;SDS011;25866;52.420;10.640;2023-03-22T12:33:19;5.28;;;2.70;;
40150;SDS011;25866;52.420;10.640;2023-03-22T12:35:49;5.38;;;2.63;;
40150;SDS011;25866;52.420;10.640;2023-03-22T12:41:37;3.10;;;2.20;;
40150;SDS011;25866;52.420;10.640;2023-03-22T12:47:00;4.55;;;2.78;;
40150;SDS011;25866;52.420;10.640;2023-03-22T12:49:37;4.63;;;2.42;;
40150;SDS011;25866;52.420;10.640;2023-03-22T12:52:11;4.15;;;2.00;;
40150;SDS011;25866;52.420;10.640;2023-03-22T12:54:51;5.18;;;2.60;;
40150;SDS011;25866;52.420;10.640;2023-03-22T12:57:17;3.42;;;2.33;;
40150;SDS011;25866;52.420;10.640;2023-03-22T12:59:44;6.43;;;2.92;;
40150;SDS011;25866;52.420;10.640;2023-03-22T13:09:54;4.15;;;2.28;;
40150;SDS011;25866;52.420;10.640;2023-03-22T13:14:54;4.68;;;2.08;;
40150;SDS011;25866;52.420;10.640;2023-03-22T13:27:55;4.72;;;2.05;;
40150;SDS011;25866;52.420;10.640;2023-03-22T13:35:41;5.18;;;1.88;;
40150;SDS011;25866;52.420;10.640;2023-03-22T13:38:34;3.88;;;1.92;;
40150;SDS011;25866;52.420;10.640;2023-03-22T13:53:54;3.80;;;1.60;;
40150;SDS011;25866;52.420;10.640;2023-03-22T13:59:11;5.05;;;1.65;;
40150;SDS011;25866;52.420;10.640;2023-03-22T14:02:33;4.03;;;1.90;;
40150;SDS011;25866;52.420;10.640;2023-03-22T14:04:49;2.65;;;1.60;;
40150;SDS011;25866;52.420;10.640;2023-03-22T14:13:17;4.50;;;1.70;;
40150;SDS011;25866;52.420;10.640;2023-03-22T14:16:05;5.70;;;1.80;;
40150;SDS011;25866;52.420;10.640;2023-03-22T14:18:39;5.30;;;1.77;;
40150;SDS011;25866;52.420;10.640;2023-03-22T14:21:10;5.57;;;1.85;;
40150;SDS011;25866;52.420;10.640;2023-03-22T14:23:41;5.43;;;1.95;;
40150;SDS011;25866;52.420;10.640;2023-03-22T14:29:15;6.88;;;2.10;;
40150;SDS011;25866;52.420;10.640;2023-03-22T14:31:42;4.10;;;1.70;;
40150;SDS011;25866;52.420;10.640;2023-03-22T14:34:13;4.47;;;1.92;;
40150;SDS011;25866;52.420;10.640;2023-03-22T14:36:43;3.05;;;1.50;;
40150;SDS011;25866;52.420;10.640;2023-03-22T14:39:14;4.82;;;2.00;;
40150;SDS011;25866;52.420;10.640;2023-03-22T14:41:58;3.33;;;1.80;;
40150;SDS011;25866;52.420;10.640;2023-03-22T14:47:13;4.97;;;1.83;;
40150;SDS011;25866;52.420;10.640;2023-03-22T14:49:42;4.45;;;1.58;;
40150;SDS011;25866;52.420;10.640;2023-03-22T14:52:29;4.22;;;1.90;;
40150;SDS011;25866;52.420;10.640;2023-03-22T14:54:57;5.13;;;1.60;;
40150;SDS011;25866;52.420;10.640;2023-03-22T14:57:29;4.90;;;1.75;;
40150;SDS011;25866;52.420;10.640;2023-03-22T14:59:57;3.90;;;1.85;;
40150;SDS011;25866;52.420;10.640;2023-03-22T15:02:33;4.80;;;2.13;;
40150;SDS011;25866;52.420;10.640;2023-03-22T15:05:23;3.58;;;1.40;;
40150;SDS011;25866;52.420;10.640;2023-03-22T15:07:52;3.95;;;1.30;;
40150;SDS011;25866;52.420;10.640;2023-03-22T15:10:21;5.10;;;1.85;;
40150;SDS011;25866;52.420;10.640;2023-03-22T15:12:54;5.45;;;1.90;;
40150;SDS011;25866;52.420;10.640;2023-03-22T15:15:21;5.88;;;1.50;;
40150;SDS011;25866;52.420;10.640;2023-03-22T15:17:52;7.28;;;1.70;;
40150;SDS011;25866;52.420;10.640;2023-03-22T15:20:21;4.50;;;1.42;;
40150;SDS011;25866;52.420;10.640;2023-03-22T15:22:51;3.70;;;1.42;;
40150;SDS011;25866;52.420;10.640;2023-03-22T15:25:19;3.40;;;1.73;;
40150;SDS011;25866;52.420;10.640;2023-03-22T15:27:51;4.18;;;1.70;;
40150;SDS011;25866;52.420;10.640;2023-03-22T15:30:18;6.93;;;1.98;;
40150;SDS011;25866;52.420;10.640;2023-03-22T15:32:44;3.58;;;1.50;;
40150;SDS011;25866;52.420;10.640;2023-03-22T15:35:14;3.80;;;1.48;;
40150;SDS011;25866;52.420;10.640;2023-03-22T15:37:41;3.22;;;1.33;;
40150;SDS011;25866;52.420;10.640;2023-03-22T15:43:14;5.13;;;1.75;;
40150;SDS011;25866;52.420;10.640;2023-03-22T15:48:46;3.35;;;1.30;;
40150;SDS011;25866;52.420;10.640;2023-03-22T15:51:18;3.30;;;1.38;;
40150;SDS011;25866;52.420;10.640;2023-03-22T15:53:47;2.42;;;1.40;;
40150;SDS011;25866;52.420;10.640;2023-03-22T15:56:21;2.60;;;1.30;;
40150;SDS011;25866;52.420;10.640;2023-03-22T15:58:51;3.78;;;1.50;;
40150;SDS011;25866;52.420;10.640;2023-03-22T16:01:24;5.15;;;1.90;;
40150;SDS011;25866;52.420;10.640;2023-03-22T16:06:23;3.88;;;1.33;;
40150;SDS011;25866;52.420;10.640;2023-03-22T16:08:53;4.75;;;1.30;;
40150;SDS011;25866;52.420;10.640;2023-03-22T16:11:24;6.18;;;1.38;;
40150;SDS011;25866;52.420;10.640;2023-03-22T16:13:52;4.72;;;1.40;;
40150;SDS011;25866;52.420;10.640;2023-03-22T16:16:24;4.53;;;1.20;;
40150;SDS011;25866;52.420;10.640;2023-03-22T16:18:50;5.03;;;1.40;;
40150;SDS011;25866;52.420;10.640;2023-03-22T16:21:18;2.67;;;1.23;;
40150;SDS011;25866;52.420;10.640;2023-03-22T16:23:51;2.72;;;1.33;;
40150;SDS011;25866;52.420;10.640;2023-03-22T16:26:17;5.97;;;1.30;;
40150;SDS011;25866;52.420;10.640;2023-03-22T16:28:43;4.93;;;1.10;;
40150;SDS011;25866;52.420;10.640;2023-03-22T16:31:12;4.80;;;1.27;;
40150;SDS011;25866;52.420;10.640;2023-03-22T16:33:40;3.10;;;1.10;;
40150;SDS011;25866;52.420;10.640;2023-03-22T16:36:13;3.10;;;1.23;;
40150;SDS011;25866;52.420;10.640;2023-03-22T16:38:42;2.85;;;1.25;;
40150;SDS011;25866;52.420;10.640;2023-03-22T16:43:52;3.35;;;1.42;;
40150;SDS011;25866;52.420;10.640;2023-03-22T16:46:22;4.53;;;1.40;;